Time;durP1;ratioP1;P1;durP2;ratioP2;P2;SDS_P1;SDS_P2;PMS_P1;PMS_P2;Temp;Humidity;BMP_temperature;BMP_pressure;BME280_temperature;BME280_humidity;BME280_pressure;Samples;Min_cycle;Max_cycle;Signal;HPM_P1;HPM_P2
2024/02/10 00:01:17;;;;;;;;;;;;;;;9.67;100.00;94419.01;108255;1278;22531;-82
2024/02/10 00:03:45;;;;;;;;;;;;;;;9.62;100.00;94412.07;108232;1283;124220;-83
2024/02/10 00:06:16;;;;;;;;;;;;;;;9.60;100.00;94410.39;109965;1275;22420;-84
2024/02/10 00:08:43;;;;;;;;;;;;;;;9.58;100.00;94404.48;109947;1275;22407;-84
2024/02/10 00:11:16;;;;;;;;;;;;;;;9.58;100.00;94413.74;109860;1280;124186;-84
2024/02/10 00:13:43;;;;;;;;;;;;;;;9.56;100.00;94412.94;109930;1283;22475;-84
2024/02/10 00:16:10;;;;;;;;;;;;;;;9.56;100.00;94414.85;109833;1278;124403;-84
2024/02/10 00:18:37;;;;;;;;;;;;;;;9.58;100.00;94419.45;109954;1277;23120;-84
2024/02/10 00:21:04;;;;;;;;;;;;;;;9.61;100.00;94420.27;109883;1275;22415;-83
2024/02/10 00:23:32;;;;;;;;;;;;;;;9.59;100.00;94423.66;109795;1283;124177;-84
2024/02/10 00:26:03;;;;;;;;;;;;;;;9.59;100.00;94421.91;109636;1277;22511;-83
2024/02/10 00:28:32;;;;;;;;;;;;;;;9.59;100.00;94424.11;108838;1283;124183;-83
2024/02/10 00:30:59;;;;;;;;;;;;;;;9.58;100.00;94423.08;108337;1283;22526;-83
2024/02/10 00:33:26;;;;;;;;;;;;;;;9.57;100.00;94426.85;108317;1283;25278;-84
2024/02/10 00:35:54;;;;;;;;;;;;;;;9.55;100.00;94427.33;108416;1280;123850;-83
2024/02/10 00:38:21;;;;;;;;;;;;;;;9.53;100.00;94428.67;108568;1280;25357;-83
2024/02/10 00:40:48;;;;;;;;;;;;;;;9.49;100.00;94429.77;108501;1280;124523;-83
2024/02/10 00:43:14;;;;;;;;;;;;;;;9.45;100.00;94432.89;108417;1280;24276;-84
2024/02/10 00:45:46;;;;;;;;;;;;;;;9.43;100.00;94435.00;108326;1278;124174;-83
2024/02/10 00:48:12;;;;;;;;;;;;;;;9.37;100.00;94432.17;108398;1280;22603;-84
2024/02/10 00:50:39;;;;;;;;;;;;;;;9.34;100.00;94429.30;108382;1281;22545;-83
2024/02/10 00:53:05;;;;;;;;;;;;;;;9.31;100.00;94432.55;108303;1280;124130;-83
2024/02/10 00:55:31;;;;;;;;;;;;;;;9.27;100.00;94434.67;108467;1275;22581;-83
2024/02/10 00:58:03;;;;;;;;;;;;;;;9.23;100.00;94442.17;108462;1280;124321;-83
2024/02/10 01:00:30;;;;;;;;;;;;;;;9.20;100.00;94440.09;108307;1280;25399;-83
2024/02/10 01:02:57;;;;;;;;;;;;;;;9.17;100.00;94443.70;108511;1262;22626;-85
2024/02/10 01:05:24;;;;;;;;;;;;;;;9.13;100.00;94444.44;108399;1281;124324;-85
2024/02/10 01:07:51;;;;;;;;;;;;;;;9.10;100.00;94442.16;108431;1275;22521;-85
2024/02/10 01:10:19;;;;;;;;;;;;;;;9.06;100.00;94438.73;108367;1277;124414;-85
2024/02/10 01:12:46;;;;;;;;;;;;;;;9.04;100.00;94435.73;108346;1278;22753;-85
2024/02/10 01:15:12;;;;;;;;;;;;;;;9.04;100.00;94434.34;108383;1271;24431;-85
2024/02/10 01:17:42;;;;;;;;;;;;;;;9.04;100.00;94430.91;108416;1278;124133;-85
2024/02/10 01:20:09;;;;;;;;;;;;;;;9.03;100.00;94431.56;108412;1273;22509;-85
2024/02/10 01:22:41;;;;;;;;;;;;;;;9.03;100.00;94430.48;108316;1275;124090;-86
2024/02/10 01:25:08;;;;;;;;;;;;;;;9.03;100.00;94429.17;108357;1277;26447;-86
2024/02/10 01:27:35;;;;;;;;;;;;;;;9.00;100.00;94429.73;109852;1269;124146;-84
2024/02/10 01:30:02;;;;;;;;;;;;;;;8.99;100.00;94424.33;109959;1277;22415;-85
2024/02/10 01:32:28;;;;;;;;;;;;;;;9.01;100.00;94425.34;109951;1278;22399;-85
2024/02/10 01:34:55;;;;;;;;;;;;;;;9.02;100.00;94425.01;109888;1273;124066;-84
2024/02/10 01:37:21;;;;;;;;;;;;;;;9.04;100.00;94427.28;109931;1274;23156;-85
2024/02/10 01:39:48;;;;;;;;;;;;;;;9.03;100.00;94426.23;109841;1280;124695;-84
2024/02/10 01:42:15;;;;;;;;;;;;;;;9.03;100.00;94423.64;109977;1277;22381;-84
2024/02/10 01:44:45;;;;;;;;;;;;;;;9.02;100.00;94423.88;109313;1280;22505;-84
2024/02/10 01:47:12;;;;;;;;;;;;;;;9.03;100.00;94421.21;108299;1278;124812;-84
2024/02/10 01:49:41;;;;;;;;;;;;;;;9.02;100.00;94419.02;108454;1280;22537;-84
2024/02/10 01:52:08;;;;;;;;;;;;;;;8.99;100.00;94416.24;108284;1280;124589;-84
2024/02/10 01:54:35;;;;;;;;;;;;;;;8.95;100.00;94417.71;108411;1273;22535;-84
2024/02/10 01:57:05;;;;;;;;;;;;;;;8.95;100.00;94418.55;108407;1278;22507;-84
2024/02/10 01:59:35;;;;;;;;;;;;;;;8.96;100.00;94420.94;109872;1280;124198;-84
2024/02/10 02:02:05;;;;;;;;;;;;;;;8.98;100.00;94422.79;109963;1275;22400;-84
2024/02/10 02:04:35;;;;;;;;;;;;;;;8.97;100.00;94415.20;109893;1275;124060;-85
2024/02/10 02:07:03;;;;;;;;;;;;;;;8.94;100.00;94409.31;109945;1280;22403;-85
2024/02/10 02:09:29;;;;;;;;;;;;;;;8.94;100.00;94406.89;109949;1278;23253;-84
2024/02/10 02:11:56;;;;;;;;;;;;;;;8.95;100.00;94405.77;109878;1279;123846;-85
2024/02/10 02:14:22;;;;;;;;;;;;;;;8.94;100.00;94404.86;109187;1275;24139;-84
2024/02/10 02:16:49;;;;;;;;;;;;;;;8.91;100.00;94401.34;108289;1280;124594;-84
2024/02/10 02:19:16;;;;;;;;;;;;;;;8.92;100.00;94400.60;108501;1280;22554;-84
2024/02/10 02:21:42;;;;;;;;;;;;;;;8.94;100.00;94395.92;108298;1275;124256;-84
2024/02/10 02:24:10;;;;;;;;;;;;;;;8.91;100.00;94391.83;108423;1278;22499;-84
2024/02/10 02:26:37;;;;;;;;;;;;;;;8.88;100.00;94387.29;108436;1275;22566;-85
2024/02/10 02:29:07;;;;;;;;;;;;;;;8.86;100.00;94383.45;108295;1280;125168;-85
2024/02/10 02:31:35;;;;;;;;;;;;;;;8.83;100.00;94382.18;108531;1274;22508;-85
2024/02/10 02:34:04;;;;;;;;;;;;;;;8.75;100.00;94375.30;108318;1277;124248;-85
2024/02/10 02:36:31;;;;;;;;;;;;;;;8.69;100.00;94374.66;108404;1278;22520;-85
2024/02/10 02:39:00;;;;;;;;;;;;;;;8.67;100.00;94371.19;108449;1274;22554;-85
2024/02/10 02:41:27;;;;;;;;;;;;;;;8.67;100.00;94368.92;108451;1280;124052;-85
2024/02/10 02:43:53;;;;;;;;;;;;;;;8.69;100.00;94371.05;108452;1279;24218;-85
2024/02/10 02:46:20;;;;;;;;;;;;;;;8.68;100.00;94375.42;108419;1275;124374;-85
2024/02/10 02:48:48;;;;;;;;;;;;;;;8.66;100.00;94372.79;108405;1275;22523;-84
2024/02/10 02:51:15;;;;;;;;;;;;;;;8.66;100.00;94371.64;108438;1277;22540;-84
2024/02/10 02:53:42;;;;;;;;;;;;;;;8.64;100.00;94374.86;108312;1280;124543;-84
2024/02/10 02:56:14;;;;;;;;;;;;;;;8.62;100.00;94378.44;108409;1280;25300;-84
2024/02/10 02:58:41;;;;;;;;;;;;;;;8.60;100.00;94380.17;109930;1280;124163;-85
2024/02/10 03:01:07;;;;;;;;;;;;;;;8.61;100.00;94377.50;109954;1280;22406;-85
2024/02/10 03:03:34;;;;;;;;;;;;;;;8.62;100.00;94378.70;109973;1278;22432;-85
2024/02/10 03:06:01;;;;;;;;;;;;;;;8.62;100.00;94378.17;109950;1280;23159;-85
2024/02/10 03:08:27;;;;;;;;;;;;;;;8.65;100.00;94379.66;110032;1280;22411;-85
2024/02/10 03:10:53;;;;;;;;;;;;;;;8.70;100.00;94380.66;109935;1275;124141;-85
2024/02/10 03:13:20;;;;;;;;;;;;;;;8.76;100.00;94384.58;110001;1275;23106;-85
2024/02/10 03:15:47;;;;;;;;;;;;;;;8.77;100.00;94383.52;109893;1275;124195;-85
2024/02/10 03:18:13;;;;;;;;;;;;;;;8.77;100.00;94388.65;108773;1278;22537;-84
2024/02/10 03:20:40;;;;;;;;;;;;;;;8.77;100.00;94388.06;108467;1270;22506;-84
2024/02/10 03:23:13;;;;;;;;;;;;;;;8.76;100.00;94392.25;108450;1275;124054;-84
2024/02/10 03:25:43;;;;;;;;;;;;;;;8.73;100.00;94389.49;108409;1280;24360;-84
2024/02/10 03:28:09;;;;;;;;;;;;;;;8.75;100.00;94392.95;108361;1275;124858;-84
2024/02/10 03:30:36;;;;;;;;;;;;;;;8.72;100.00;94391.64;108455;1275;22506;-84
2024/02/10 03:33:02;;;;;;;;;;;;;;;8.67;100.00;94393.16;108450;1275;22541;-84
2024/02/10 03:35:32;;;;;;;;;;;;;;;8.65;100.00;94393.11;108339;1280;124661;-84
2024/02/10 03:37:58;;;;;;;;;;;;;;;8.63;100.00;94394.50;108457;1280;25233;-84
2024/02/10 03:40:25;;;;;;;;;;;;;;;8.58;100.00;94393.15;108400;1280;124145;-83
2024/02/10 03:42:51;;;;;;;;;;;;;;;8.50;100.00;94393.38;108467;1280;22499;-84
2024/02/10 03:45:18;;;;;;;;;;;;;;;8.43;100.00;94393.64;108445;1280;24230;-84
2024/02/10 03:47:44;;;;;;;;;;;;;;;8.39;100.00;94393.85;108376;1278;124613;-84
2024/02/10 03:50:11;;;;;;;;;;;;;;;8.36;100.00;94396.08;108517;1280;22522;-84
2024/02/10 03:52:38;;;;;;;;;;;;;;;8.34;100.00;94399.77;108334;1280;124074;-83
2024/02/10 03:55:04;;;;;;;;;;;;;;;8.34;100.00;94406.64;108544;1280;22508;-83
2024/02/10 03:57:31;;;;;;;;;;;;;;;8.31;100.00;94405.75;108528;1275;22498;-84
2024/02/10 03:59:57;;;;;;;;;;;;;;;8.27;100.00;94406.44;108399;1275;123885;-84
2024/02/10 04:02:24;;;;;;;;;;;;;;;8.26;100.00;94401.24;108518;1278;22510;-85
2024/02/10 04:04:50;;;;;;;;;;;;;;;8.24;100.00;94399.95;108353;1275;124295;-84
2024/02/10 04:07:16;;;;;;;;;;;;;;;8.24;100.00;94397.45;108463;1278;25406;-84
2024/02/10 04:09:43;;;;;;;;;;;;;;;8.22;100.00;94395.84;108349;1280;124318;-84
2024/02/10 04:12:10;;;;;;;;;;;;;;;8.18;100.00;94390.48;108549;1271;22508;-84
2024/02/10 04:14:36;;;;;;;;;;;;;;;8.18;100.00;94384.19;108565;1280;22938;-84
2024/02/10 04:17:03;;;;;;;;;;;;;;;8.16;100.00;94380.11;108405;1280;124152;-84
2024/02/10 04:19:30;;;;;;;;;;;;;;;8.14;100.00;94379.21;108395;1281;22522;-84
2024/02/10 04:21:57;;;;;;;;;;;;;;;8.08;100.00;94382.77;108406;1280;124342;-84
2024/02/10 04:24:25;;;;;;;;;;;;;;;8.06;100.00;94381.64;108486;1280;22517;-84
2024/02/10 04:26:52;;;;;;;;;;;;;;;8.02;100.00;94375.63;108491;1281;22550;-84
2024/02/10 04:29:19;;;;;;;;;;;;;;;7.99;100.00;94374.59;108316;1281;124128;-84
2024/02/10 04:31:47;;;;;;;;;;;;;;;7.95;100.00;94372.95;108424;1280;22553;-84
2024/02/10 04:34:13;;;;;;;;;;;;;;;7.92;100.00;94370.19;108369;1278;124313;-84
2024/02/10 04:36:39;;;;;;;;;;;;;;;7.90;100.00;94369.98;108478;1275;22508;-84
2024/02/10 04:39:06;;;;;;;;;;;;;;;7.88;100.00;94365.79;108525;1275;22515;-84
2024/02/10 04:41:32;;;;;;;;;;;;;;;7.89;100.00;94363.02;108456;1281;124064;-84
2024/02/10 04:43:59;;;;;;;;;;;;;;;7.92;100.00;94364.10;108531;1280;22498;-84
2024/02/10 04:46:25;;;;;;;;;;;;;;;7.94;100.00;94361.25;108445;1278;124143;-84
2024/02/10 04:48:55;;;;;;;;;;;;;;;7.97;100.00;94360.12;108481;1274;22531;-84
2024/02/10 04:51:23;;;;;;;;;;;;;;;7.96;100.00;94352.33;108503;1280;22512;-84
2024/02/10 04:53:49;;;;;;;;;;;;;;;7.96;100.00;94355.63;108288;1276;124253;-84
2024/02/10 04:56:19;;;;;;;;;;;;;;;7.96;100.00;94353.91;108438;1281;22508;-84
2024/02/10 04:58:48;;;;;;;;;;;;;;;7.95;100.00;94356.71;108457;1280;124084;-84
2024/02/10 05:01:19;;;;;;;;;;;;;;;7.93;100.00;94356.51;108462;1281;22497;-84
2024/02/10 05:03:46;;;;;;;;;;;;;;;7.93;100.00;94356.58;108447;1270;124199;-84
2024/02/10 05:06:14;;;;;;;;;;;;;;;7.93;100.00;94360.55;109999;1275;22403;-84
2024/02/10 05:08:40;;;;;;;;;;;;;;;7.93;100.00;94358.89;109998;1280;22392;-84
2024/02/10 05:11:07;;;;;;;;;;;;;;;7.92;100.00;94358.05;109911;1280;124678;-84
2024/02/10 05:13:33;;;;;;;;;;;;;;;7.94;100.00;94359.90;109984;1275;22422;-84
2024/02/10 05:15:59;;;;;;;;;;;;;;;7.95;100.00;94364.86;109923;1275;124484;-84
2024/02/10 05:18:26;;;;;;;;;;;;;;;7.95;100.00;94367.85;109486;1281;22959;-84
2024/02/10 05:20:56;;;;;;;;;;;;;;;7.93;100.00;94364.65;108425;1280;25325;-83
2024/02/10 05:23:24;;;;;;;;;;;;;;;7.95;100.00;94366.85;108305;1274;124295;-83
2024/02/10 05:25:53;;;;;;;;;;;;;;;7.96;100.00;94366.57;108407;1278;22621;-83
2024/02/10 05:28:25;;;;;;;;;;;;;;;7.95;100.00;94369.08;109866;1280;124364;-84
2024/02/10 05:30:57;;;;;;;;;;;;;;;7.94;100.00;94368.77;109972;1275;22455;-84
2024/02/10 05:33:27;;;;;;;;;;;;;;;7.95;100.00;94369.00;108611;1279;22512;-83
2024/02/10 12:45:47;;;;;;;;;;;;;;;11.63;88.30;94420.15;108806;1288;22566;-84
2024/02/10 12:48:17;;;;;;;;;;;;;;;11.67;88.78;94425.14;108026;1288;22535;-84
2024/02/10 12:50:44;;;;;;;;;;;;;;;11.68;88.35;94430.48;107972;1288;124305;-84
2024/02/10 12:53:17;;;;;;;;;;;;;;;11.70;89.36;94432.31;107967;1288;22500;-84
2024/02/10 12:55:44;;;;;;;;;;;;;;;11.72;89.06;94438.41;107901;1279;124859;-84
2024/02/10 12:58:11;;;;;;;;;;;;;;;11.72;88.08;94438.47;107967;1288;23419;-84
2024/02/10 13:00:38;;;;;;;;;;;;;;;11.68;87.36;94439.05;108020;1288;22730;-84
2024/02/10 13:03:05;;;;;;;;;;;;;;;11.63;88.24;94440.65;107876;1288;124422;-84
2024/02/10 13:05:33;;;;;;;;;;;;;;;11.62;88.36;94437.70;107936;1288;22523;-84
2024/02/10 13:08:00;;;;;;;;;;;;;;;11.63;88.36;94440.22;107922;1288;124776;-83
2024/02/10 13:10:28;;;;;;;;;;;;;;;11.64;88.25;94441.12;108050;1288;22531;-84
2024/02/10 13:12:56;;;;;;;;;;;;;;;11.64;88.37;94439.31;108136;1287;22531;-83
2024/02/10 13:15:23;;;;;;;;;;;;;;;11.65;88.35;94438.28;107902;1284;124507;-84
2024/02/10 13:17:50;;;;;;;;;;;;;;;11.64;88.30;94439.77;107962;1283;22534;-84
2024/02/10 13:20:23;;;;;;;;;;;;;;;11.63;88.19;94439.50;107877;1288;124969;-84
2024/02/10 13:22:51;;;;;;;;;;;;;;;11.66;88.70;94447.91;107969;1288;22512;-84
2024/02/10 13:25:19;;;;;;;;;;;;;;;11.68;88.32;94448.41;107921;1288;124638;-85
2024/02/10 13:27:45;;;;;;;;;;;;;;;11.71;88.29;94448.88;108078;1283;22525;-84
2024/02/10 13:30:13;;;;;;;;;;;;;;;11.73;88.99;94457.27;107984;1283;22530;-84
2024/02/10 13:32:40;;;;;;;;;;;;;;;11.77;88.79;94455.95;107934;1281;124608;-84
2024/02/10 13:35:08;;;;;;;;;;;;;;;11.77;88.06;94458.56;108005;1283;22513;-84
2024/02/10 14:09:54;;;;;;;;;;;;;;;11.59;85.97;94448.60;109688;1285;23332;-85
2024/02/10 14:12:21;;;;;;;;;;;;;;;11.59;86.29;94446.92;109639;1280;23134;-85
2024/02/10 14:14:47;;;;;;;;;;;;;;;11.57;85.78;94450.43;108904;1288;124778;-84
2024/02/10 14:17:19;;;;;;;;;;;;;;;11.58;85.63;94454.61;108213;1285;22591;-84
2024/02/10 14:19:48;;;;;;;;;;;;;;;11.59;85.44;94458.43;107957;1287;124436;-84
2024/02/10 14:22:16;;;;;;;;;;;;;;;11.59;85.86;94456.65;108029;1288;23128;-84
2024/02/10 14:24:45;;;;;;;;;;;;;;;11.56;85.81;94451.46;108178;1288;22518;-85
2024/02/10 14:27:15;;;;;;;;;;;;;;;11.54;85.83;94450.41;107944;1282;124265;-84
2024/02/10 14:29:43;;;;;;;;;;;;;;;11.52;85.27;94448.81;108019;1283;22521;-84
2024/02/10 14:32:12;;;;;;;;;;;;;;;11.52;85.55;94451.26;108620;1283;124967;-84
2024/02/10 14:37:41;;;;;;;;;;;;;;;11.50;85.73;94449.20;107973;1283;124932;-85
2024/02/10 14:40:11;;;;;;;;;;;;;;;11.48;85.78;94454.63;107969;1283;22859;-84
2024/02/10 14:42:39;;;;;;;;;;;;;;;11.46;85.54;94454.23;108141;1280;22541;-84
2024/02/10 14:45:20;;;;;;;;;;;;;;;11.44;86.01;94453.07;107862;1288;124775;-84
2024/02/10 14:47:47;;;;;;;;;;;;;;;11.42;85.10;94452.52;107991;1283;23306;-85
2024/02/10 14:50:17;;;;;;;;;;;;;;;11.40;85.39;94454.30;108020;1288;124297;-84
2024/02/10 14:52:44;;;;;;;;;;;;;;;11.39;84.63;94452.84;108016;1281;22540;-85
2024/02/10 14:55:12;;;;;;;;;;;;;;;11.39;83.83;94451.08;108149;1283;22532;-84
2024/02/10 14:57:38;;;;;;;;;;;;;;;11.40;84.96;94442.60;108018;1287;124072;-84
2024/02/10 15:00:12;;;;;;;;;;;;;;;11.41;85.20;94439.35;108009;1271;22631;-84
2024/02/10 15:02:40;;;;;;;;;;;;;;;11.39;84.86;94442.84;108087;1288;124441;-84
2024/02/10 15:05:10;;;;;;;;;;;;;;;11.38;85.14;94445.11;108012;1289;22518;-84
2024/02/10 15:07:36;;;;;;;;;;;;;;;11.37;85.47;94449.09;107897;1288;124419;-84
2024/02/10 15:10:03;;;;;;;;;;;;;;;11.35;84.65;94453.58;108026;1286;22533;-84
2024/02/10 15:12:30;;;;;;;;;;;;;;;11.33;85.01;94449.32;107987;1280;25340;-84
2024/02/10 15:14:58;;;;;;;;;;;;;;;11.31;85.39;94445.80;107857;1289;124951;-84
2024/02/10 15:17:25;;;;;;;;;;;;;;;11.31;85.51;94451.84;108017;1288;22546;-84
2024/02/10 15:19:51;;;;;;;;;;;;;;;11.28;84.72;94445.19;107884;1288;124451;-84
2024/02/10 15:22:21;;;;;;;;;;;;;;;11.28;84.44;94455.02;108029;1289;22536;-84
2024/02/10 15:24:47;;;;;;;;;;;;;;;11.29;84.79;94453.11;107988;1283;22536;-84
2024/02/10 15:27:15;;;;;;;;;;;;;;;11.27;84.49;94451.77;107923;1283;124388;-84
2024/02/10 15:29:41;;;;;;;;;;;;;;;11.27;84.73;94446.84;107954;1289;22532;-84
2024/02/10 15:32:10;;;;;;;;;;;;;;;11.26;84.91;94444.64;107917;1283;124335;-84
2024/02/10 15:34:36;;;;;;;;;;;;;;;11.23;84.97;94447.23;108174;1285;25392;-84
2024/02/10 15:37:03;;;;;;;;;;;;;;;11.20;85.09;94442.89;108029;1288;22541;-84
2024/02/10 15:39:30;;;;;;;;;;;;;;;11.22;85.04;94437.80;108040;1283;124281;-84
2024/02/10 15:41:56;;;;;;;;;;;;;;;11.24;85.12;94444.49;108034;1288;22555;-84
2024/02/10 15:44:30;;;;;;;;;;;;;;;11.24;84.95;94440.96;107911;1282;125023;-84
2024/02/10 15:46:57;;;;;;;;;;;;;;;11.23;85.06;94440.42;108065;1279;25216;-84
2024/02/10 15:49:23;;;;;;;;;;;;;;;11.20;85.35;94440.86;107997;1289;124424;-84
2024/02/10 15:51:49;;;;;;;;;;;;;;;11.19;85.22;94444.65;108125;1288;22745;-84
2024/02/10 15:54:16;;;;;;;;;;;;;;;11.19;85.52;94441.52;107989;1283;22523;-84
2024/02/10 15:56:43;;;;;;;;;;;;;;;11.14;85.24;94451.16;107918;1288;124271;-84
2024/02/10 15:59:11;;;;;;;;;;;;;;;11.10;85.01;94445.73;108124;1288;24466;-84
2024/02/10 16:01:38;;;;;;;;;;;;;;;11.12;85.15;94445.48;107858;1288;124400;-84
2024/02/10 16:04:08;;;;;;;;;;;;;;;11.12;86.02;94441.98;108052;1288;22596;-84
2024/02/10 16:06:38;;;;;;;;;;;;;;;11.01;87.09;94447.95;108021;1283;26288;-84
2024/02/10 16:09:08;;;;;;;;;;;;;;;10.90;85.90;94450.60;107947;1285;124306;-84
2024/02/10 16:11:35;;;;;;;;;;;;;;;10.89;86.62;94455.77;108067;1282;24920;-84
2024/02/10 16:14:01;;;;;;;;;;;;;;;10.82;86.41;94452.07;107921;1289;124457;-84
2024/02/10 16:16:29;;;;;;;;;;;;;;;10.82;86.69;94466.71;108045;1286;23340;-84
2024/02/10 16:18:58;;;;;;;;;;;;;;;10.79;86.50;94466.86;108010;1288;22534;-84
2024/02/10 16:21:29;;;;;;;;;;;;;;;10.80;85.87;94467.77;108065;1288;124371;-84
2024/02/10 16:23:58;;;;;;;;;;;;;;;10.83;86.26;94466.77;108103;1288;22545;-84
2024/02/10 16:26:26;;;;;;;;;;;;;;;10.81;86.93;94471.32;107941;1286;124419;-84
2024/02/10 16:28:52;;;;;;;;;;;;;;;10.76;87.58;94475.27;108062;1282;22658;-84
2024/02/10 16:31:19;;;;;;;;;;;;;;;10.61;88.01;94470.95;108132;1288;24249;-84
2024/02/10 16:33:51;;;;;;;;;;;;;;;10.47;88.31;94473.41;108053;1288;22527;-84
2024/02/10 16:36:26;;;;;;;;;;;;;;;10.18;88.70;94471.45;108154;1282;22531;-84
2024/02/10 16:38:53;;;;;;;;;;;;;;;9.99;89.38;94469.55;108077;1287;124285;-84
2024/02/10 16:41:20;;;;;;;;;;;;;;;9.82;89.97;94466.05;108028;1289;27564;-84
2024/02/10 16:43:49;;;;;;;;;;;;;;;9.64;90.65;94463.22;107910;1289;124259;-84
2024/02/10 16:46:16;;;;;;;;;;;;;;;9.60;91.30;94459.09;108031;1281;22563;-84
2024/02/10 16:48:47;;;;;;;;;;;;;;;9.53;91.58;94453.24;108152;1288;25393;-84
2024/02/10 16:51:23;;;;;;;;;;;;;;;9.44;91.92;94447.84;107923;1283;124192;-84
2024/02/10 16:53:54;;;;;;;;;;;;;;;9.35;92.53;94443.69;109574;1281;23089;-84
2024/02/10 16:56:21;;;;;;;;;;;;;;;9.30;93.14;94450.46;108035;1288;124231;-84
2024/02/10 16:58:48;;;;;;;;;;;;;;;9.20;93.38;94451.02;108014;1281;22530;-84
2024/02/10 17:01:15;;;;;;;;;;;;;;;9.12;93.29;94455.02;108050;1281;22562;-84
2024/02/10 17:03:41;;;;;;;;;;;;;;;9.25;93.71;94453.43;108291;1283;125926;-84
2024/02/10 17:06:11;;;;;;;;;;;;;;;9.27;94.11;94452.57;108080;1289;22994;-84
2024/02/10 17:08:37;;;;;;;;;;;;;;;9.20;94.06;94458.02;107933;1281;124099;-84
2024/02/10 17:11:05;;;;;;;;;;;;;;;9.17;94.46;94453.39;108042;1289;22535;-84
2024/02/10 17:13:32;;;;;;;;;;;;;;;9.11;95.09;94462.91;107914;1284;125091;-84
2024/02/10 17:15:58;;;;;;;;;;;;;;;9.00;95.27;94460.81;108054;1283;24209;-84
2024/02/10 17:18:24;;;;;;;;;;;;;;;8.93;95.53;94461.89;108021;1289;22540;-84
2024/02/10 17:20:52;;;;;;;;;;;;;;;8.95;95.77;94462.08;107976;1288;123968;-84
2024/02/10 17:23:24;;;;;;;;;;;;;;;8.91;95.95;94467.56;108167;1281;22553;-84
2024/02/10 17:25:51;;;;;;;;;;;;;;;8.89;96.30;94463.45;107895;1288;124585;-84
2024/02/10 17:28:19;;;;;;;;;;;;;;;8.85;96.31;94460.23;108035;1283;22525;-84
2024/02/10 17:30:48;;;;;;;;;;;;;;;8.79;96.27;94465.42;108056;1288;22549;-84
2024/02/10 17:33:18;;;;;;;;;;;;;;;8.76;96.60;94469.61;107963;1288;124346;-84
2024/02/10 17:35:52;;;;;;;;;;;;;;;8.70;96.90;94475.31;108050;1283;22621;-84
2024/02/10 17:38:24;;;;;;;;;;;;;;;8.67;97.21;94475.39;108057;1287;124589;-84
2024/02/10 17:40:50;;;;;;;;;;;;;;;8.72;96.44;94466.20;109023;1288;22558;-84
2024/02/10 17:43:20;;;;;;;;;;;;;;;8.90;97.18;94463.80;108037;1283;22518;-84
2024/02/10 17:45:48;;;;;;;;;;;;;;;8.87;96.82;94460.41;108041;1288;22556;-84
2024/02/10 17:48:20;;;;;;;;;;;;;;;8.81;96.64;94463.31;108079;1285;22510;-84
2024/02/10 17:50:58;;;;;;;;;;;;;;;8.79;96.40;94455.89;108078;1280;124039;-84
2024/02/10 17:53:25;;;;;;;;;;;;;;;8.90;96.40;94460.94;108037;1281;23031;-84
2024/02/10 17:55:53;;;;;;;;;;;;;;;8.97;96.14;94462.34;108073;1276;124641;-84
2024/02/10 17:58:20;;;;;;;;;;;;;;;8.98;96.24;94466.89;108040;1288;25098;-84
2024/02/10 18:00:50;;;;;;;;;;;;;;;8.95;96.45;94462.95;108021;1280;22510;-84
2024/02/10 18:03:18;;;;;;;;;;;;;;;8.82;96.26;94463.78;108146;1288;124009;-83
2024/02/10 18:05:48;;;;;;;;;;;;;;;8.76;96.51;94460.96;109729;1280;23237;-85
2024/02/10 18:08:15;;;;;;;;;;;;;;;8.76;96.65;94467.73;107966;1288;123996;-84
2024/02/10 18:10:42;;;;;;;;;;;;;;;8.72;96.09;94471.85;108045;1284;22525;-84
2024/02/10 18:13:09;;;;;;;;;;;;;;;8.76;96.59;94471.17;108050;1288;22522;-84
2024/02/10 18:15:35;;;;;;;;;;;;;;;8.79;96.52;94469.55;107982;1288;123950;-84
2024/02/10 18:18:02;;;;;;;;;;;;;;;8.76;96.77;94464.29;108009;1287;22563;-84
2024/02/10 18:20:28;;;;;;;;;;;;;;;8.70;96.58;94470.81;107954;1288;124409;-84
2024/02/10 18:22:56;;;;;;;;;;;;;;;8.67;96.77;94469.33;108037;1288;22916;-84
2024/02/10 18:25:25;;;;;;;;;;;;;;;8.61;96.69;94473.98;108075;1287;124148;-84
2024/02/10 18:27:53;;;;;;;;;;;;;;;8.61;96.59;94475.13;108043;1288;22539;-84
2024/02/10 18:30:22;;;;;;;;;;;;;;;8.64;96.46;94467.05;108063;1288;22522;-84
2024/02/10 18:32:49;;;;;;;;;;;;;;;8.82;96.77;94463.90;107975;1283;124206;-84
2024/02/10 18:35:23;;;;;;;;;;;;;;;8.92;95.89;94460.07;108130;1280;22514;-84
2024/02/10 18:37:56;;;;;;;;;;;;;;;9.06;95.33;94460.64;107915;1283;124269;-84
2024/02/10 18:40:26;;;;;;;;;;;;;;;9.18;94.61;94461.50;108048;1288;22548;-84
2024/02/10 18:42:53;;;;;;;;;;;;;;;9.31;94.44;94462.38;108503;1280;22621;-84
2024/02/10 18:45:23;;;;;;;;;;;;;;;9.44;93.42;94463.03;107980;1283;124245;-84
2024/02/10 18:47:50;;;;;;;;;;;;;;;9.56;91.96;94465.15;108069;1287;22594;-84
2024/02/10 18:50:17;;;;;;;;;;;;;;;9.75;92.04;94466.33;107981;1286;124115;-84
2024/02/10 18:52:44;;;;;;;;;;;;;;;9.93;91.33;94461.79;108047;1288;22536;-84
2024/02/10 18:55:13;;;;;;;;;;;;;;;10.08;91.01;94463.58;108218;1288;22552;-84
2024/02/10 18:57:44;;;;;;;;;;;;;;;10.11;91.13;94465.08;107941;1283;124211;-84
2024/02/10 19:00:13;;;;;;;;;;;;;;;10.09;90.44;94467.71;108210;1280;23404;-84
2024/02/10 19:02:40;;;;;;;;;;;;;;;10.10;90.18;94461.31;107962;1288;124503;-84
2024/02/10 19:05:07;;;;;;;;;;;;;;;10.10;90.13;94465.63;108034;1286;22591;-84
2024/02/10 19:07:35;;;;;;;;;;;;;;;10.08;90.10;94465.17;107933;1287;124569;-84
2024/02/10 19:10:05;;;;;;;;;;;;;;;10.05;90.52;94467.05;108114;1285;25235;-84
2024/02/10 19:12:32;;;;;;;;;;;;;;;9.98;90.17;94467.81;108173;1288;23113;-84
2024/02/10 19:14:58;;;;;;;;;;;;;;;9.90;90.09;94457.10;108034;1288;124621;-84
2024/02/10 19:17:26;;;;;;;;;;;;;;;9.80;90.37;94458.11;108043;1288;22544;-84
2024/02/10 19:19:52;;;;;;;;;;;;;;;9.76;90.34;94460.77;107956;1288;124247;-85
2024/02/10 19:22:21;;;;;;;;;;;;;;;9.84;89.21;94458.63;108047;1282;22515;-85
2024/02/10 19:24:48;;;;;;;;;;;;;;;9.97;89.70;94453.33;108112;1288;22526;-85
2024/02/10 19:27:14;;;;;;;;;;;;;;;10.05;88.82;94454.48;108039;1286;124368;-85
2024/02/10 19:29:41;;;;;;;;;;;;;;;10.16;88.91;94447.73;108282;1284;22544;-85
2024/02/10 19:32:08;;;;;;;;;;;;;;;10.21;87.67;94448.98;108012;1283;124325;-85
2024/02/10 19:34:40;;;;;;;;;;;;;;;10.30;88.07;94446.83;108087;1288;22511;-85
2024/02/10 19:37:06;;;;;;;;;;;;;;;10.34;87.59;94443.22;108068;1273;24321;-85
2024/02/10 19:39:33;;;;;;;;;;;;;;;10.40;87.34;94445.42;107987;1286;124380;-85
2024/02/10 19:42:00;;;;;;;;;;;;;;;10.45;86.41;94443.84;108076;1286;22563;-85
2024/02/10 19:44:28;;;;;;;;;;;;;;;10.54;86.13;94440.02;108003;1286;125243;-85
2024/02/10 19:46:55;;;;;;;;;;;;;;;10.63;85.59;94440.41;108087;1282;22619;-85
2024/02/10 19:49:23;;;;;;;;;;;;;;;10.70;85.10;94432.38;107967;1288;124374;-86
2024/02/10 19:51:49;;;;;;;;;;;;;;;10.76;84.50;94435.02;108065;1283;22561;-85
2024/02/10 19:54:16;;;;;;;;;;;;;;;10.82;84.31;94429.05;108137;1288;25340;-85
2024/02/10 19:56:49;;;;;;;;;;;;;;;10.85;84.36;94423.73;108066;1284;124232;-86
2024/02/10 19:59:15;;;;;;;;;;;;;;;10.89;83.16;94418.09;108085;1286;22550;-85
2024/02/10 20:01:44;;;;;;;;;;;;;;;10.96;83.27;94409.30;108099;1267;124862;-85
2024/02/10 20:04:10;;;;;;;;;;;;;;;11.03;82.16;94407.34;108014;1286;22556;-85
2024/02/10 20:06:38;;;;;;;;;;;;;;;11.09;80.82;94404.09;108023;1288;22658;-85
2024/02/10 20:09:07;;;;;;;;;;;;;;;11.19;81.21;94399.46;107923;1286;124368;-85
2024/02/10 20:11:35;;;;;;;;;;;;;;;11.25;80.40;94398.98;108019;1280;22824;-85
2024/02/10 20:14:04;;;;;;;;;;;;;;;11.31;80.30;94398.27;107884;1288;124465;-85
2024/02/10 20:16:30;;;;;;;;;;;;;;;11.38;79.34;94391.80;107917;1288;22518;-85
2024/02/10 20:18:57;;;;;;;;;;;;;;;11.41;79.87;94399.35;108017;1280;22529;-85
2024/02/10 20:21:24;;;;;;;;;;;;;;;11.42;80.80;94392.36;107843;1281;124361;-86
2024/02/10 20:23:53;;;;;;;;;;;;;;;11.40;80.85;94390.60;107924;1288;25320;-85